createdAt,value
2018-02-22T00:00:18.308Z,99.90
2018-02-22T00:02:45.184Z,99.90
2018-02-22T00:05:12.884Z,99.90
2018-02-22T00:07:39.782Z,99.90
2018-02-22T00:10:06.756Z,99.90
2018-02-22T00:12:33.648Z,99.90
2018-02-22T00:15:00.599Z,99.90
2018-02-22T00:17:27.535Z,99.90
2018-02-22T00:19:54.421Z,99.90
2018-02-22T00:22:21.391Z,99.90
2018-02-22T00:24:48.263Z,99.90
2018-02-22T00:27:15.286Z,99.90
2018-02-22T00:29:42.235Z,99.90
2018-02-22T00:32:09.230Z,99.90
2018-02-22T00:34:36.179Z,99.90
2018-02-22T00:37:03.105Z,99.90
2018-02-22T00:39:30.063Z,99.90
2018-02-22T00:41:57.026Z,99.90
2018-02-22T00:44:23.916Z,99.90
2018-02-22T00:46:50.879Z,99.90
2018-02-22T00:49:17.739Z,99.90
2018-02-22T00:51:44.608Z,99.90
2018-02-22T00:54:11.561Z,99.90
2018-02-22T00:56:38.455Z,99.90
2018-02-22T00:59:05.410Z,99.90
2018-02-22T01:01:32.307Z,99.90
2018-02-22T01:03:59.995Z,99.90
2018-02-22T01:06:26.852Z,99.90
2018-02-22T01:08:53.720Z,99.90
2018-02-22T01:11:20.651Z,99.90
2018-02-22T01:13:47.548Z,99.90
2018-02-22T01:16:15.227Z,99.90
2018-02-22T01:18:42.102Z,99.90
2018-02-22T01:21:09.112Z,99.90
2018-02-22T01:23:36.723Z,99.90
2018-02-22T01:26:03.586Z,99.90
2018-02-22T01:28:30.519Z,99.90
2018-02-22T01:30:57.394Z,99.90
2018-02-22T01:33:24.291Z,99.90
2018-02-22T01:35:51.257Z,99.90
2018-02-22T01:38:18.210Z,99.90
2018-02-22T01:40:45.068Z,99.90
2018-02-22T01:43:12.725Z,99.90
2018-02-22T01:45:39.680Z,99.90
2018-02-22T01:48:06.559Z,99.90
2018-02-22T01:50:33.560Z,99.90
2018-02-22T01:53:00.441Z,99.90
2018-02-22T01:55:27.379Z,99.90
2018-02-22T01:57:54.989Z,99.90
2018-02-22T02:00:21.984Z,99.90
2018-02-22T02:02:48.869Z,99.90
2018-02-22T02:05:15.805Z,99.90
2018-02-22T02:07:42.751Z,99.90
2018-02-22T02:10:09.696Z,99.90
2018-02-22T02:12:36.591Z,99.90
2018-02-22T02:15:03.586Z,99.90
2018-02-22T02:17:30.524Z,99.90
2018-02-22T02:19:57.584Z,99.90
2018-02-22T02:22:24.533Z,99.90
2018-02-22T02:24:51.416Z,99.90
2018-02-22T02:27:18.375Z,99.90
2018-02-22T02:29:45.310Z,99.90
2018-02-22T02:32:12.188Z,99.90
2018-02-22T02:34:39.802Z,99.90
2018-02-22T02:37:06.748Z,99.90
2018-02-22T02:39:33.763Z,99.90
2018-02-22T02:42:00.720Z,99.90
2018-02-22T02:44:27.659Z,99.90
2018-02-22T02:46:54.608Z,99.90
2018-02-22T02:49:21.477Z,99.90
2018-02-22T02:51:48.443Z,99.90
2018-02-22T02:54:15.341Z,99.90
2018-02-22T02:56:42.280Z,99.90
2018-02-22T02:59:09.159Z,99.90
2018-02-22T03:01:36.019Z,99.90
2018-02-22T03:04:02.998Z,99.90
2018-02-22T03:06:30.613Z,99.90
2018-02-22T03:08:57.566Z,99.90
2018-02-22T03:11:24.469Z,99.90
2018-02-22T03:13:51.414Z,99.90
2018-02-22T03:16:18.277Z,99.90
2018-02-22T03:18:45.212Z,99.90
2018-02-22T03:21:12.091Z,99.90
2018-02-22T03:23:39.131Z,99.90
2018-02-22T03:26:05.998Z,99.90
2018-02-22T03:28:32.894Z,99.90
2018-02-22T03:30:59.828Z,99.90
2018-02-22T03:33:27.462Z,99.90
2018-02-22T03:35:54.401Z,99.90
2018-02-22T03:38:21.359Z,99.90
2018-02-22T03:40:48.237Z,99.90
2018-02-22T03:43:15.167Z,99.90
2018-02-22T03:45:42.778Z,99.90
2018-02-22T03:48:09.709Z,99.90
2018-02-22T03:50:36.578Z,99.90
2018-02-22T03:53:03.513Z,99.90
2018-02-22T03:55:30.388Z,99.90
2018-02-22T03:57:57.310Z,99.90
2018-02-22T04:00:24.316Z,99.90
2018-02-22T04:02:51.252Z,99.90
2018-02-22T04:05:18.851Z,99.90
2018-02-22T04:07:45.777Z,99.90
2018-02-22T04:10:12.715Z,99.90
2018-02-22T04:12:39.649Z,99.90
2018-02-22T04:15:06.517Z,99.90
2018-02-22T04:17:33.480Z,99.90
2018-02-22T04:20:00.436Z,99.90
2018-02-22T04:22:27.385Z,99.90
2018-02-22T04:24:54.318Z,99.90
2018-02-22T04:27:21.288Z,99.90
2018-02-22T04:29:48.251Z,99.90
2018-02-22T04:32:15.117Z,99.90
2018-02-22T04:34:42.731Z,99.90
2018-02-22T04:37:09.666Z,99.90
2018-02-22T04:39:36.576Z,99.90
2018-02-22T04:42:04.295Z,99.90
2018-02-22T04:44:31.172Z,99.90
2018-02-22T04:46:58.115Z,99.90
2018-02-22T04:49:25.789Z,99.90
2018-02-22T04:51:53.690Z,99.90
2018-02-22T04:54:20.590Z,99.90
2018-02-22T04:56:47.519Z,99.90
2018-02-22T04:59:14.448Z,99.90
2018-02-22T05:01:41.315Z,99.90
2018-02-22T05:04:08.254Z,99.90
2018-02-22T05:06:35.174Z,99.90
2018-02-22T05:09:02.115Z,99.90
2018-02-22T05:11:29.002Z,99.90
2018-02-22T05:13:55.935Z,99.90
2018-02-22T05:16:22.900Z,99.90
2018-02-22T05:18:49.902Z,99.90
2018-02-22T05:21:16.872Z,99.90
2018-02-22T05:23:44.765Z,99.90
2018-02-22T05:26:16.446Z,99.90
2018-02-22T05:28:58.270Z,99.90
2018-02-22T05:31:26.024Z,99.90
2018-02-22T05:33:52.976Z,99.90
2018-02-22T05:36:19.997Z,99.90
2018-02-22T05:39:01.149Z,99.90
2018-02-22T05:41:29.737Z,99.90
2018-02-22T05:43:56.907Z,99.90
2018-02-22T05:46:24.540Z,99.90
2018-02-22T05:48:51.445Z,99.90
2018-02-22T05:51:18.400Z,99.90
2018-02-22T05:53:45.332Z,99.90
2018-02-22T05:56:12.208Z,99.90
2018-02-22T05:58:39.139Z,99.90
2018-02-22T06:01:08.111Z,99.90
2018-02-22T06:03:46.416Z,99.90
2018-02-22T06:06:27.591Z,99.90
2018-02-22T06:09:07.523Z,99.90
2018-02-22T06:11:45.864Z,99.90
2018-02-22T06:14:14.783Z,99.90
2018-02-22T06:16:43.005Z,99.90
2018-02-22T06:19:09.924Z,99.90
2018-02-22T06:21:36.871Z,99.90
2018-02-22T06:24:03.739Z,99.90
2018-02-22T06:26:30.673Z,99.90
2018-02-22T06:29:01.569Z,99.90
2018-02-22T06:31:32.488Z,99.90
2018-02-22T06:34:00.829Z,99.90
2018-02-22T06:36:30.039Z,99.90
2018-02-22T06:38:56.951Z,99.90
2018-02-22T06:41:24.174Z,99.90
2018-02-22T06:43:51.656Z,99.90
2018-02-22T06:46:18.680Z,99.90
2018-02-22T06:48:45.552Z,99.90
2018-02-22T06:51:12.490Z,99.90
2018-02-22T06:53:39.419Z,99.90
2018-02-22T06:56:06.364Z,99.90
2018-02-22T06:58:33.305Z,99.90
2018-02-22T07:01:00.968Z,99.90
2018-02-22T07:03:28.487Z,99.90
2018-02-22T07:05:55.568Z,99.90
2018-02-22T07:08:23.244Z,99.90
2018-02-22T07:10:50.131Z,99.90
2018-02-22T07:13:17.055Z,99.90
2018-02-22T07:15:44.020Z,99.90
2018-02-22T07:18:11.750Z,99.90
2018-02-22T07:20:38.675Z,99.90
2018-02-22T07:23:16.650Z,99.90
2018-02-22T07:25:32.594Z,99.90
2018-02-22T07:27:59.471Z,99.60
2018-02-22T07:30:26.480Z,99.00
2018-02-22T07:32:53.335Z,97.50
2018-02-22T07:35:20.316Z,96.40
2018-02-22T07:37:47.193Z,95.40
2018-02-22T07:40:14.901Z,93.50
2018-02-22T07:42:41.763Z,93.30
2018-02-22T07:45:08.620Z,92.90
2018-02-22T07:47:35.608Z,91.70
2018-02-22T07:50:02.488Z,90.30
2018-02-22T07:52:29.439Z,85.50
2018-02-22T07:54:56.321Z,77.20
2018-02-22T07:57:23.292Z,71.20
2018-02-22T07:59:50.251Z,65.40
2018-02-22T08:02:17.127Z,59.50
2018-02-22T08:04:44.063Z,57.00
2018-02-22T08:07:10.927Z,53.80
2018-02-22T08:09:37.852Z,53.00
2018-02-22T08:12:04.805Z,51.80
2018-02-22T08:14:31.675Z,48.00
2018-02-22T08:16:58.611Z,45.00
2018-02-22T08:19:25.520Z,41.30
2018-02-22T08:21:52.471Z,42.30
2018-02-22T08:24:19.397Z,41.50
2018-02-22T08:26:46.273Z,41.50
2018-02-22T08:29:13.269Z,41.30
2018-02-22T08:31:40.208Z,41.20
2018-02-22T08:34:11.569Z,40.80
2018-02-22T08:36:38.586Z,39.60
2018-02-22T08:39:05.473Z,38.50
2018-02-22T08:41:32.457Z,39.60
2018-02-22T08:43:59.395Z,38.00
2018-02-22T08:46:26.328Z,36.40
2018-02-22T08:48:53.282Z,38.80
2018-02-22T08:51:20.219Z,37.40
2018-02-22T08:53:47.084Z,37.00
2018-02-22T08:56:14.020Z,37.10
2018-02-22T08:58:40.973Z,34.40
2018-02-22T09:01:07.896Z,35.40
2018-02-22T09:03:34.838Z,34.50
2018-02-22T09:06:01.717Z,33.80
2018-02-22T09:08:28.664Z,35.90
2018-02-22T09:10:55.511Z,34.70
2018-02-22T09:13:22.455Z,35.60
2018-02-22T09:15:49.316Z,34.50
2018-02-22T09:18:16.239Z,32.30
2018-02-22T09:20:43.944Z,33.40
2018-02-22T09:23:13.946Z,33.10
2018-02-22T09:25:42.493Z,32.70
2018-02-22T09:28:15.014Z,32.80
2018-02-22T09:30:42.701Z,33.30
2018-02-22T09:33:11.232Z,32.70
2018-02-22T09:35:38.164Z,34.30
2018-02-22T09:38:07.630Z,31.60
2018-02-22T09:40:34.605Z,31.30
2018-02-22T09:43:04.159Z,33.60
2018-02-22T09:45:31.031Z,33.80
2018-02-22T09:48:00.787Z,36.30
2018-02-22T09:50:30.537Z,38.40
2018-02-22T09:52:57.508Z,41.10
2018-02-22T09:55:24.398Z,41.70
2018-02-22T09:57:53.360Z,42.30
2018-02-22T10:00:27.207Z,43.60
2018-02-22T10:02:54.286Z,43.20
2018-02-22T10:05:22.068Z,42.80
2018-02-22T10:07:49.976Z,42.80
2018-02-22T10:10:16.943Z,42.80
2018-02-22T10:12:43.884Z,42.70
2018-02-22T10:15:10.835Z,45.20
2018-02-22T10:17:37.971Z,43.70
2018-02-22T10:20:06.044Z,44.20
2018-02-22T10:22:38.177Z,44.70
2018-02-22T10:25:06.066Z,46.30
2018-02-22T10:27:38.032Z,45.90
2018-02-22T10:30:06.539Z,46.10
2018-02-22T10:32:39.564Z,45.40
2018-02-22T10:35:14.754Z,47.50
2018-02-22T10:37:55.721Z,47.50
2018-02-22T10:40:26.067Z,47.60
2018-02-22T10:42:52.941Z,45.90
2018-02-22T10:45:20.918Z,47.10
2018-02-22T10:48:00.073Z,47.60
2018-02-22T10:50:33.285Z,47.30
2018-02-22T10:53:12.145Z,45.60
2018-02-22T10:55:47.927Z,46.20
2018-02-22T10:58:21.688Z,45.70
2018-02-22T11:00:55.195Z,45.60
2018-02-22T11:03:22.168Z,45.60
2018-02-22T11:05:53.728Z,45.50
2018-02-22T11:08:28.574Z,44.00
2018-02-22T11:10:56.441Z,44.70
2018-02-22T11:13:24.228Z,44.10
2018-02-22T11:15:51.103Z,43.90
2018-02-22T11:18:18.040Z,43.80
2018-02-22T11:20:44.923Z,45.20
2018-02-22T11:23:11.879Z,45.50
2018-02-22T11:25:39.496Z,46.00
2018-02-22T11:28:06.497Z,45.30
2018-02-22T11:30:43.970Z,45.40
2018-02-22T11:33:25.098Z,45.90
2018-02-22T11:36:04.604Z,44.00
2018-02-22T11:38:31.568Z,44.00
2018-02-22T11:41:10.429Z,44.40
2018-02-22T11:43:38.398Z,43.10
2018-02-22T11:46:10.105Z,43.90
2018-02-22T11:48:37.428Z,42.60
2018-02-22T11:51:06.987Z,42.60
2018-02-22T11:53:34.047Z,42.60
2018-02-22T11:56:02.782Z,51.00
2018-02-22T11:58:29.656Z,45.70
2018-02-22T12:00:57.376Z,45.00
2018-02-22T12:03:24.247Z,45.10
2018-02-22T12:05:57.030Z,43.90
2018-02-22T12:08:23.966Z,44.50
2018-02-22T12:10:50.887Z,45.90
2018-02-22T12:13:17.809Z,44.60
2018-02-22T12:15:45.057Z,45.30
2018-02-22T12:18:12.066Z,45.40
2018-02-22T12:20:38.969Z,47.60
2018-02-22T12:23:06.878Z,46.00
2018-02-22T12:25:33.772Z,47.40
2018-02-22T12:28:00.777Z,48.10
2018-02-22T12:30:28.377Z,49.90
2018-02-22T12:32:55.486Z,47.90
2018-02-22T12:35:22.421Z,48.50
2018-02-22T12:37:49.364Z,50.00
2018-02-22T12:40:16.236Z,50.60
2018-02-22T12:42:43.149Z,50.90
2018-02-22T12:45:10.133Z,51.40
2018-02-22T12:47:38.906Z,52.20
2018-02-22T12:50:07.220Z,52.20
2018-02-22T12:52:37.034Z,52.10
2018-02-22T12:55:04.169Z,51.50
2018-02-22T12:57:33.276Z,51.60
2018-02-22T13:00:03.620Z,50.50
2018-02-22T13:02:32.694Z,50.50
2018-02-22T13:05:00.844Z,50.80
2018-02-22T13:07:30.994Z,51.80
2018-02-22T13:10:01.511Z,51.80
2018-02-22T13:12:28.479Z,51.40
2018-02-22T13:14:55.693Z,51.40
2018-02-22T13:17:26.955Z,52.50
2018-02-22T13:19:54.064Z,52.20
2018-02-22T13:22:20.931Z,53.40
2018-02-22T13:24:47.872Z,52.30
2018-02-22T13:27:14.761Z,50.40
2018-02-22T13:29:41.710Z,51.80
2018-02-22T13:32:08.663Z,50.90
2018-02-22T13:34:41.866Z,51.20
2018-02-22T13:37:23.333Z,51.90
2018-02-22T13:39:50.860Z,50.30
2018-02-22T13:42:17.746Z,51.40
2018-02-22T13:45:02.497Z,51.30
2018-02-22T13:47:30.084Z,50.90
2018-02-22T13:50:09.854Z,50.50
2018-02-22T13:52:39.135Z,50.20
2018-02-22T13:55:09.131Z,49.80
2018-02-22T13:57:36.127Z,49.80
2018-02-22T14:00:03.817Z,49.50
2018-02-22T14:02:30.805Z,48.10
2018-02-22T14:04:59.118Z,49.70
2018-02-22T14:07:26.809Z,50.00
2018-02-22T14:09:54.468Z,49.90
2018-02-22T14:12:22.148Z,50.60
2018-02-22T14:14:49.131Z,50.80
2018-02-22T14:17:16.077Z,50.90
2018-02-22T14:19:43.623Z,51.60
2018-02-22T14:22:15.165Z,52.20
2018-02-22T14:24:44.149Z,52.10
2018-02-22T14:27:13.875Z,52.40
2018-02-22T14:29:44.399Z,52.30
2018-02-22T14:32:12.730Z,51.60
2018-02-22T14:34:40.402Z,52.20
2018-02-22T14:37:07.341Z,51.60
2018-02-22T14:39:34.292Z,51.20
2018-02-22T14:42:01.160Z,52.60
2018-02-22T14:44:28.882Z,52.00
2018-02-22T14:46:55.902Z,52.00
2018-02-22T14:49:22.854Z,51.50
2018-02-22T14:51:49.804Z,51.60
2018-02-22T14:54:23.907Z,52.80
2018-02-22T14:56:51.551Z,51.80
2018-02-22T14:59:19.190Z,51.60
2018-02-22T15:01:48.734Z,51.30
2018-02-22T15:04:17.830Z,51.60
2018-02-22T15:06:45.106Z,51.20
2018-02-22T15:09:11.989Z,51.00
2018-02-22T15:11:42.716Z,51.00
2018-02-22T15:14:11.301Z,50.70
2018-02-22T15:16:38.805Z,50.40
2018-02-22T15:19:06.290Z,50.70
2018-02-22T15:21:33.952Z,50.60
2018-02-22T15:24:00.940Z,50.80
2018-02-22T15:26:27.821Z,51.10
2018-02-22T15:28:56.993Z,50.60
2018-02-22T15:31:28.792Z,51.70
2018-02-22T15:33:56.752Z,51.70
2018-02-22T15:36:25.643Z,53.00
2018-02-22T15:38:52.824Z,50.60
2018-02-22T15:41:19.707Z,51.10
2018-02-22T15:43:46.681Z,51.80
2018-02-22T15:46:14.285Z,51.50
2018-02-22T15:48:45.501Z,52.90
2018-02-22T15:51:12.547Z,52.90
2018-02-22T15:53:39.444Z,52.90
2018-02-22T15:56:09.380Z,52.20
2018-02-22T15:58:42.159Z,52.60
2018-02-22T16:01:09.108Z,52.80
2018-02-22T16:03:37.093Z,53.10
2018-02-22T16:06:05.076Z,52.80
2018-02-22T16:08:46.628Z,52.80
2018-02-22T16:11:14.320Z,53.40
2018-02-22T16:13:51.787Z,54.20
2018-02-22T16:16:22.520Z,54.70
2018-02-22T16:18:52.351Z,54.00
2018-02-22T16:21:32.295Z,54.70
2018-02-22T16:24:00.523Z,56.20
2018-02-22T16:26:38.216Z,54.30
2018-02-22T16:29:19.019Z,55.40
2018-02-22T16:31:46.572Z,55.70
2018-02-22T16:34:13.770Z,55.90
2018-02-22T16:36:43.317Z,56.60
2018-02-22T16:39:22.776Z,56.80
2018-02-22T16:41:58.475Z,58.00
2018-02-22T16:44:26.572Z,57.50
2018-02-22T16:47:06.463Z,58.30
2018-02-22T16:49:45.555Z,58.20
2018-02-22T16:52:16.098Z,60.60
2018-02-22T16:54:52.305Z,60.40
2018-02-22T16:57:19.280Z,61.60
2018-02-22T16:59:58.691Z,63.60
2018-02-22T17:02:38.312Z,64.00
2018-02-22T17:05:13.846Z,65.00
2018-02-22T17:07:41.846Z,65.90
2018-02-22T17:10:09.684Z,67.10
2018-02-22T17:12:36.627Z,66.80
2018-02-22T17:15:15.353Z,68.20
2018-02-22T17:17:45.236Z,68.30
2018-02-22T17:20:12.196Z,69.10
2018-02-22T17:22:39.119Z,68.80
2018-02-22T17:25:10.654Z,73.20
2018-02-22T17:27:47.472Z,70.70
2018-02-22T17:30:25.200Z,70.60
2018-02-22T17:32:54.292Z,70.90
2018-02-22T17:35:44.659Z,70.80
2018-02-22T17:38:24.740Z,71.30
2018-02-22T17:41:07.080Z,71.40
2018-02-22T17:43:49.147Z,73.50
2018-02-22T17:46:31.001Z,73.40
2018-02-22T17:51:44.444Z,74.20
2018-02-22T17:54:25.834Z,74.10
2018-02-22T17:57:08.318Z,73.90
2018-02-22T17:59:45.188Z,75.40
2018-02-22T18:02:23.746Z,75.10
2018-02-22T18:05:04.072Z,75.50
2018-02-22T18:07:45.757Z,75.80
2018-02-22T18:10:13.988Z,77.30
2018-02-22T18:12:41.002Z,77.70
2018-02-22T18:15:08.755Z,79.20
2018-02-22T18:17:35.767Z,79.10
2018-02-22T18:20:02.770Z,80.20
2018-02-22T18:22:30.510Z,79.10
2018-02-22T18:24:57.455Z,79.10
2018-02-22T18:27:24.453Z,78.80
2018-02-22T18:29:51.388Z,79.50
2018-02-22T18:32:18.392Z,80.20
2018-02-22T18:34:45.335Z,80.50
2018-02-22T18:37:18.083Z,80.10
2018-02-22T18:39:45.107Z,79.80
2018-02-22T18:42:26.843Z,80.80
2018-02-22T18:44:59.792Z,80.00
2018-02-22T18:47:26.681Z,80.90
2018-02-22T18:49:53.624Z,81.60
2018-02-22T18:52:21.912Z,81.20
2018-02-22T18:54:50.342Z,81.90
2018-02-22T18:57:18.811Z,81.30
2018-02-22T18:59:48.452Z,81.70
2018-02-22T19:02:18.865Z,82.80
2018-02-22T19:04:45.751Z,82.60
2018-02-22T19:07:12.705Z,81.90
2018-02-22T19:09:39.640Z,82.40
2018-02-22T19:17:46.765Z,82.10
2018-02-22T19:20:30.098Z,83.80
2018-02-22T19:22:58.284Z,83.80
2018-02-22T19:25:26.113Z,83.80
2018-02-22T19:27:53.091Z,82.70
2018-02-22T19:30:30.141Z,82.90
2018-02-22T19:33:04.420Z,83.40
2018-02-22T19:35:39.995Z,83.80
2018-02-22T19:38:22.375Z,84.30
2018-02-22T19:41:01.409Z,84.10
2018-02-22T19:46:12.441Z,85.00
2018-02-22T19:48:51.968Z,85.00
2018-02-22T19:51:35.509Z,85.60
2018-02-22T19:56:53.420Z,85.90
2018-02-22T19:59:33.285Z,86.00
2018-02-22T20:02:01.441Z,85.60
2018-02-22T20:04:29.146Z,86.70
2018-02-22T20:06:56.139Z,85.70
2018-02-22T20:09:23.089Z,86.80
2018-02-22T20:12:00.613Z,86.70
2018-02-22T20:14:40.705Z,87.60
2018-02-22T20:17:10.285Z,87.40
2018-02-22T20:19:49.248Z,87.80
2018-02-22T20:22:19.979Z,87.80
2018-02-22T20:24:54.899Z,87.10
2018-02-22T20:27:32.506Z,89.00
2018-02-22T20:32:58.454Z,88.40
2018-02-22T20:35:43.323Z,87.80
2018-02-22T20:38:24.159Z,88.50
2018-02-22T20:40:52.075Z,88.00
2018-02-22T20:43:19.486Z,88.40
2018-02-22T20:45:47.825Z,89.30
2018-02-22T20:48:29.820Z,88.20
2018-02-22T20:51:03.634Z,89.00
2018-02-22T20:53:31.559Z,89.30
2018-02-22T20:56:06.540Z,89.00
2018-02-22T20:58:48.024Z,89.10
2018-02-22T21:01:18.459Z,89.50
2018-02-22T21:03:48.792Z,89.30
2018-02-22T21:06:29.302Z,88.80
2018-02-22T21:09:07.116Z,89.00
2018-02-22T21:11:34.963Z,89.00
2018-02-22T21:14:09.402Z,90.10
2018-02-22T21:16:47.597Z,89.90
2018-02-22T21:19:17.004Z,90.50
2018-02-22T21:21:53.647Z,90.40
2018-02-22T21:24:20.554Z,89.90
2018-02-22T21:26:47.523Z,90.00
2018-02-22T21:29:23.906Z,90.30
2018-02-22T21:32:04.252Z,90.30
2018-02-22T21:34:45.254Z,90.60
2018-02-22T21:37:29.050Z,90.70
2018-02-22T21:40:10.308Z,90.60
2018-02-22T21:42:53.878Z,90.90
2018-02-22T21:50:52.267Z,90.90
2018-02-22T21:53:32.966Z,90.90
2018-02-22T21:56:13.574Z,91.20
2018-02-22T21:58:51.366Z,91.10
2018-02-22T22:01:33.116Z,91.20
2018-02-22T22:04:07.307Z,91.10
2018-02-22T22:06:34.230Z,91.30
2018-02-22T22:09:01.921Z,91.10
2018-02-22T22:11:28.865Z,91.10
2018-02-22T22:13:55.806Z,91.50
2018-02-22T22:16:22.682Z,91.40
2018-02-22T22:18:49.620Z,91.70
2018-02-22T22:21:16.550Z,91.30
2018-02-22T22:23:43.516Z,91.30
2018-02-22T22:26:10.399Z,91.40
2018-02-22T22:28:37.285Z,91.30
2018-02-22T22:31:04.216Z,91.20
2018-02-22T22:33:31.148Z,91.50
2018-02-22T22:35:58.084Z,91.70
2018-02-22T22:38:25.009Z,91.30
2018-02-22T22:40:51.881Z,91.60
2018-02-22T22:43:19.866Z,91.70
2018-02-22T22:45:55.514Z,91.70
2018-02-22T22:48:23.193Z,91.70
2018-02-22T22:50:50.505Z,91.60
2018-02-22T22:53:17.791Z,91.30
2018-02-22T22:55:48.262Z,91.10
2018-02-22T22:58:22.050Z,91.50
2018-02-22T23:00:59.039Z,91.60
2018-02-22T23:03:35.651Z,91.20
2018-02-22T23:06:15.138Z,91.50
2018-02-22T23:08:54.865Z,91.50
2018-02-22T23:11:22.527Z,91.70
2018-02-22T23:14:00.437Z,91.50
2018-02-22T23:16:28.180Z,91.40
2018-02-22T23:18:55.795Z,91.70
2018-02-22T23:21:24.116Z,91.50
2018-02-22T23:23:51.736Z,91.50
2018-02-22T23:26:30.727Z,91.70
2018-02-22T23:29:04.082Z,91.90
2018-02-22T23:31:32.670Z,92.10
2018-02-22T23:36:46.862Z,92.40
2018-02-22T23:39:29.387Z,92.70
2018-02-22T23:42:03.219Z,92.60
2018-02-22T23:44:30.211Z,92.50
2018-02-22T23:46:57.140Z,92.40
2018-02-22T23:49:24.005Z,92.50
2018-02-22T23:51:50.988Z,92.60
2018-02-22T23:54:17.976Z,92.60
2018-02-22T23:56:44.869Z,92.80
2018-02-22T23:59:11.874Z,92.70
